KLYO/LYO METAR and TAF weather

Enter ICAO airport designator
Station Type Date Time Source
KLYO METAR 2022/11/27 08:35 UTC NOAA

KLYO 270835Z AUTO 35018G24KT 10SM OVC065 05/02 A2974 RMK AO2 T00520019


Station Type Date Time Source
KLYO Decoded METAR 2022/11/27 08:35 UTC NOAA

Station name not available
Nov 27, 2022 - 03:35 AM EST / 2022.11.27 0835 UTC
Wind: from the N (350 degrees) at 21 MPH (18 KT) gusting to 28 MPH (24 KT):0
Visibility: 10 mile(s):0
Sky conditions: overcast
Temperature: 41.4 F (5.2 C)
Dew Point: 35.4 F (1.9 C)
Relative Humidity: 79%
Pressure (altimeter): 29.74 in. Hg (1007 hPa)
ob: KLYO 270835Z AUTO 35018G24KT 10SM OVC065 05/02 A2974 RMK AO2 T00520019
cycle: 8

Station Type Date Time Source
KLYO TAF UTC NOAA

Error!

Example: see airport list